Historyczne dane pomiarowe

Dodano dane terminowe – wersja testowa.

Dane z okresu 1951-2019

Wersja bazy: 1.34 [2019-03-16, lista zmian], aktualizacja planowana na 2019-04-15

Dane meteo z obszaru Polski uzyskane na podstawie danych udostępnionych przez Instytut Meteorologii i Gospodarki Wodnej – Państwowy Instytut Badawczy.

 

Wybierz Datę:    

       

TemperaturaWilgotnośćWiatrCiśnienieOpadyŚniegCzas trwania zjawisk
 Stacja t tx tn tng RH VA  wxwx mslp ppp RRR   cm mm wxwxwxwxwxwxwx
1956-11-09 -8.3 -1.2-11.1- 72.3- 3.7 1.3---- 0.0------------
1956-11-08 -5.4 -0.1 -9.3- 81.3- 4.0 1.3---- 0.0------------
1956-11-07 0.2 1.9 -0.9- 96.0- 7.3 3.0---- 4.4------------
1956-11-06 1.4 5.1 0.3- 81.3- 7.0 3.0---- 0.8------------
1956-11-05 4.2 5.2 -7.4- 81.0- 6.3 4.0---- 3.0------------
1956-11-04 -2.9 3.1 -5.8- 82.8- 1.0 0.3---- 0.0------------
1956-11-03 -0.5 1.3 -2.0- 93.8- 8.0 1.0---- 0.0------------
1956-11-02 0.8 5.7 -5.4- 75.8- 6.0 1.3---- 0.0------------
1956-11-01 -1.2 6.8 -7.3- 76.0- 0.3 2.0---- 0.0------------
1956-10-31 -3.6 4.8 -5.4- 86.3- 6.0 2.7---- 0.0------------
1956-10-30 5.0 6.2 3.3- 90.3- 8.0 1.7---- 0.0------------
1956-10-29 4.8 7.7 -0.3- 78.0- 8.0 3.0---- 0.2------------
1956-10-28 8.9 15.0 5.9- 83.0- 5.0 1.3---- 0.4------------
1956-10-27 10.6 15.4 2.3- 82.5- 6.3 1.0---- 0.0------------
1956-10-26 8.4 16.8 0.3- 89.0- 0.7 1.0---- 0.0------------
1956-10-25 9.0 17.1 2.7- 82.8- 0.3 1.7---- 0.0------------
1956-10-24 7.6 14.5 4.9- 91.3- 3.0 0.3---- 0.0------------
1956-10-23 9.0 17.4 4.9- 90.3- 0.0 0.7---- 0.0------------
1956-10-22 9.9 18.3 4.5- 89.8- 0.3 1.0---- 0.0------------
1956-10-21 11.7 16.2 9.6- 91.8- 5.3 0.7---- 0.0------------
1956-10-20 12.3 15.2 8.6- 91.3- 8.0 0.0---- 0.2------------
1956-10-19 12.1 13.9 9.5- 77.0- 8.0 3.0---- 0.4------------
1956-10-18 10.0 16.4 -0.5- 78.3- 5.3 0.7---- 0.0------------
1956-10-17 5.0 13.1 -1.6- 84.3- 0.0 1.0---- 0.0------------
1956-10-16 3.8 11.2 -1.3- 83.8- 0.0 1.3---- 0.0------------
1956-10-15 3.7 11.4 0.2- 86.3- 1.0 1.0---- 0.0------------
1956-10-14 9.6 11.3 8.5- 74.8- 6.0 5.0---- 2.9------------
1956-10-13 9.7 11.4 3.3- 68.5- 8.0 4.3---- 0.0------------
1956-10-12 6.9 13.3 -1.3- 81.3- 3.7 1.3---- 0.0------------
1956-10-11 2.8 10.3 -0.5- 84.3- 3.7 0.7---- 0.0------------
1956-10-10 5.0 6.8 3.6- 74.3- 6.3 1.7---- 0.0------------
1956-10-09 5.0 10.0 -0.3- 80.0- 4.7 1.7---- 1.4------------
1956-10-08 3.5 10.4 -1.0- 85.5- 1.3 1.7---- 0.0------------
1956-10-07 5.4 7.4 2.7- 74.5- 4.7 3.7---- 0.0------------
1956-10-06 5.4 10.0 2.5- 90.8- 8.0 2.3---- 15.6------------
1956-10-05 10.4 15.9 5.2- 83.8- 6.0 0.3---- 12.6------------
1956-10-04 11.5 16.0 8.6- 93.3- 7.7 1.3---- 1.3------------
1956-10-03 17.8 23.5 10.6- 63.8- 7.3 2.3---- 3.4------------
1956-10-02 16.4 27.3 8.0- 72.8- 2.0 1.7---- 0.0------------
1956-10-01 14.3 24.7 8.6- 89.5- 3.3 1.7---- 0.0------------
1956-09-30 14.7 21.3 8.2- 85.8- 3.0 0.7---- 0.0------------
1956-09-29 17.0 22.6 6.2- 70.5- 3.3 1.0---- 0.0------------
1956-09-28 14.0 19.7 10.6- 86.8- 3.7 1.3---- 1.3------------
1956-09-27 18.2 24.3 9.7- 55.3- 6.0 2.3---- 0.0------------
1956-09-26 13.3 22.4 6.0- 60.8- 0.0 2.3---- 0.0------------
1956-09-25 13.5 22.2 3.3- 72.3- 0.3 1.3---- 0.0------------
1956-09-24 8.9 16.6 5.7- 90.3- 2.7 0.7---- 0.0------------
1956-09-23 9.9 18.4 3.6- 85.3- 4.7 2.0---- 0.0------------
1956-09-22 11.4 20.7 4.7- 84.5- 0.0 1.0---- 0.0------------
1956-09-21 10.7 20.4 3.7- 83.5- 0.3 0.3---- 0.0------------
1956-09-20 8.4 18.4 1.7- 83.3- 2.3 1.7---- 0.0------------
1956-09-19 6.6 13.8 1.2- 85.3- 2.0 1.0---- 0.0------------
1956-09-18 7.0 9.8 3.7- 85.5- 6.3 2.3---- 0.0------------
1956-09-17 9.6 12.6 8.2- 85.3- 7.7 2.7---- 8.0------------
1956-09-16 12.9 19.0 6.3- 88.0- 4.7 1.0---- 0.0------------
1956-09-15 13.2 17.9 7.2- 76.0- 5.0 1.0---- 0.0------------
1956-09-14 10.1 11.5 5.6- 79.5- 8.0 2.7---- 0.0------------
1956-09-13 7.6 11.9 6.6- 83.8- 4.7 2.7---- 4.6------------
1956-09-12 11.7 16.1 9.6- 81.3- 7.0 4.3---- 4.2------------
1956-09-11 16.5 19.8 12.9- 81.0- 8.0 3.0---- 1.5------------
246.1 ms

 

Źródłem pochodzenia danych jest Instytut Meteorologii i Gospodarki Wodnej – Państwowy Instytut Badawczy. Dane Instytutu Meteorologii i Gospodarki Wodnej – Państwowego Instytutu Badawczego zostały przetworzone.

Dane źródłowe można odnaleźć na stronie https://dane.imgw.pl